Terminal Aerodrome Forecast
Issued by NWS Charleston, WV

Current Version | Previous Version | Text Only | Print | Product List | Glossary Off
Versions: 1 2 3 4 5 6 7 8 9 10 11 12 13 14 15 16 17 18 19 20 21 22 23

000
FTUS41 KRLX 161700
TAFPKB
TAF
KPKB 161734Z 1618/1718 01004KT P6SM FEW028 BKN040
     FM162000 35004KT P6SM SCT035
     FM170100 00000KT P6SM SCT250
     FM170500 00000KT 4SM BR SCT001
     FM170600 00000KT 1/2SM FG VV001
     FM171300 00000KT 2SM BR SCT002
     FM171330 00000KT P6SM FEW035=

USA.gov is the U.S. government's official web portal to all federal, state and local government web resources and services.